MMMY/MTY METAR and TAF weather

Enter ICAO airport designator
Station Type Date Time Source
MMMY METAR 2018/12/13 19:40 UTC NOAA

MMMY 131940Z 27020G34KT 15SM SKC 27/// A2978


Station Type Date Time Source
MMMY Decoded METAR 2018/12/13 19:40 UTC NOAA

Monterrey / Gen Maria, Mexico (MMMY) 25-47N 100-06W
Dec 13, 2018 - 02:40 PM EST / 2018.12.13 1940 UTC
Wind: from the W (270 degrees) at 23 MPH (20 KT) gusting to 39 MPH (34 KT):0
Visibility: 15 mile(s):0
Sky conditions: clear
Temperature: 80 F (27 C)
Pressure (altimeter): 29.78 in. Hg (1008 hPa)
ob: MMMY 131940Z 27020G34KT 15SM SKC 27/// A2978
cycle: 19

Station Type Date Time Source
MMMY TAF 2018/12/13 18:20 UTC NOAA

TAF COR MMMY 131714Z 1318/1424 30015G25KT P6SM SKC TX26/1318Z TN04/1412Z
TEMPO 1318/1322 30020G30KT
FM140400 33018KT P6SM SKC
BECMG 1406/1407 31010KT
FM141600 31015KT P6SM SKC


Example: see airport list